Terminal Aerodrome Forecast
Issued by NWS Cleveland, OH

Home | Current Version | Previous Version | Graphics & Text | Print | Product List | Glossary Off
Versions: 1 2 3 4 5 6 7 8 9 10 11 12 13 14 15 16 17

000
FTUS41 KCLE 231000 AAA
TAFERI
TAF AMD
KERI 231034Z 2311/2406 20006KT P6SM VCTS SCT040CB OVC200
      TEMPO 2311/2313 4SM -SHRA BR OVC040
     FM231300 26008KT P6SM BKN040 OVC080
      TEMPO 2313/2315 5SM -SHRA BR SCT012 OVC040
     FM231500 33010KT P6SM OVC012
     FM231800 33012KT P6SM OVC025
     FM232000 33012KT P6SM BKN035
     FM232300 35010KT P6SM BKN045=

USA.gov is the U.S. government's official web portal to all federal, state and local government web resources and services.